createdAt,value
2022-09-06T00:01:17.141Z,17.24
2022-09-06T00:03:45.628Z,17.13
2022-09-06T00:06:19.163Z,17.04
2022-09-06T00:08:48.003Z,16.82
2022-09-06T00:11:17.052Z,16.44
2022-09-06T00:13:44.538Z,16.36
2022-09-06T00:16:29.714Z,16.29
2022-09-06T00:18:57.931Z,15.98
2022-09-06T00:21:27.699Z,15.64
2022-09-06T00:23:55.625Z,15.45
2022-09-06T00:26:23.489Z,15.33
2022-09-06T00:28:50.802Z,15.21
2022-09-06T00:31:21.130Z,15.14
2022-09-06T00:33:48.495Z,15.05
2022-09-06T00:36:16.023Z,14.95
2022-09-06T00:38:43.449Z,14.84
2022-09-06T00:41:13.550Z,14.88
2022-09-06T00:43:42.269Z,14.83
2022-09-06T00:46:14.570Z,14.68
2022-09-06T00:48:43.414Z,14.62
2022-09-06T00:51:13.319Z,14.46
2022-09-06T00:53:40.630Z,14.31
2022-09-06T00:56:08.135Z,14.17
2022-09-06T00:58:35.957Z,14.07
2022-09-06T01:01:03.312Z,13.98
2022-09-06T01:03:30.541Z,13.92
2022-09-06T01:06:04.049Z,13.85
2022-09-06T01:08:49.587Z,13.79
2022-09-06T01:11:25.823Z,13.94
2022-09-06T01:14:27.250Z,13.96
2022-09-06T01:17:26.140Z,13.90
2022-09-06T01:20:24.868Z,13.85
2022-09-06T01:23:16.532Z,13.87
2022-09-06T01:26:28.069Z,13.58
2022-09-06T01:28:55.876Z,13.32
2022-09-06T01:31:26.196Z,13.29
2022-09-06T01:34:08.699Z,13.25
2022-09-06T01:36:59.986Z,13.15
2022-09-06T01:39:33.865Z,13.12
2022-09-06T01:42:10.430Z,13.16
2022-09-06T01:44:39.696Z,13.12
2022-09-06T01:47:22.501Z,13.12
2022-09-06T01:50:20.886Z,13.30
2022-09-06T01:53:22.504Z,13.22
2022-09-06T01:56:16.057Z,13.15
2022-09-06T01:59:16.287Z,13.23
2022-09-06T02:01:46.660Z,13.14
2022-09-06T02:04:36.984Z,13.09
2022-09-06T02:07:14.374Z,12.96
2022-09-06T02:09:47.161Z,12.97
2022-09-06T02:12:17.841Z,12.92
2022-09-06T02:15:07.357Z,13.05
2022-09-06T02:17:40.175Z,12.85
2022-09-06T02:20:12.926Z,12.94
2022-09-06T02:22:44.221Z,12.87
2022-09-06T02:25:19.256Z,12.76
2022-09-06T02:27:46.798Z,12.87
2022-09-06T02:30:14.365Z,12.94
2022-09-06T02:32:50.715Z,12.89
2022-09-06T02:35:18.272Z,12.76
2022-09-06T02:37:45.681Z,12.63
2022-09-06T02:40:13.213Z,12.53
2022-09-06T02:42:42.054Z,12.45
2022-09-06T02:45:09.671Z,12.44
2022-09-06T02:47:36.976Z,12.53
2022-09-06T02:50:04.453Z,12.50
2022-09-06T02:52:31.919Z,12.52
2022-09-06T02:54:59.023Z,12.63
2022-09-06T02:57:26.314Z,12.55
2022-09-06T02:59:53.592Z,12.57
2022-09-06T03:02:20.796Z,12.46
2022-09-06T03:04:48.060Z,12.45
2022-09-06T03:07:15.263Z,12.48
2022-09-06T03:09:42.644Z,12.57
2022-09-06T03:12:10.016Z,12.61
2022-09-06T03:14:37.695Z,12.52
2022-09-06T03:17:05.335Z,12.34
2022-09-06T03:19:32.823Z,12.43
2022-09-06T03:22:00.122Z,12.35
2022-09-06T03:24:27.335Z,12.33
2022-09-06T03:26:54.839Z,12.33
2022-09-06T03:29:22.181Z,12.28
2022-09-06T03:31:49.586Z,12.27
2022-09-06T03:34:16.810Z,12.31
2022-09-06T03:36:44.206Z,12.30
2022-09-06T03:39:11.367Z,12.36
2022-09-06T03:41:38.534Z,12.41
2022-09-06T03:44:05.809Z,12.46
2022-09-06T03:46:33.085Z,12.54
2022-09-06T03:49:02.075Z,12.56
2022-09-06T03:51:29.409Z,12.65
2022-09-06T03:53:57.889Z,12.63
2022-09-06T03:56:25.037Z,12.68
2022-09-06T03:58:52.236Z,12.69
2022-09-06T04:01:20.282Z,12.67
2022-09-06T04:03:47.574Z,12.66
2022-09-06T04:06:14.970Z,12.66
2022-09-06T04:08:42.354Z,12.68
2022-09-06T04:11:09.688Z,12.87
2022-09-06T04:13:37.097Z,12.93
2022-09-06T04:16:05.628Z,12.94
2022-09-06T04:18:33.121Z,12.98
2022-09-06T04:21:00.450Z,12.95
2022-09-06T04:23:29.149Z,12.93
2022-09-06T04:25:58.339Z,12.90
2022-09-06T04:28:27.012Z,12.69
2022-09-06T04:31:04.638Z,12.71
2022-09-06T04:33:34.988Z,12.73
2022-09-06T04:36:04.686Z,12.83
2022-09-06T04:38:36.054Z,12.84
2022-09-06T04:41:04.489Z,12.80
2022-09-06T04:43:31.925Z,12.90
2022-09-06T04:46:06.848Z,13.10
2022-09-06T04:48:35.403Z,13.19
2022-09-06T04:51:02.930Z,13.29
2022-09-06T04:53:30.079Z,13.40
2022-09-06T04:55:58.267Z,13.53
2022-09-06T04:58:26.277Z,13.70
2022-09-06T05:00:53.977Z,13.75
2022-09-06T05:03:21.252Z,13.73
2022-09-06T05:05:48.636Z,13.64
2022-09-06T05:08:16.240Z,13.59
2022-09-06T05:10:43.511Z,13.39
2022-09-06T05:13:10.628Z,13.62
2022-09-06T05:15:38.513Z,13.82
2022-09-06T05:18:06.933Z,13.87
2022-09-06T05:20:34.347Z,14.01
2022-09-06T05:23:01.953Z,14.10
2022-09-06T05:25:29.249Z,14.27
2022-09-06T05:27:56.493Z,14.34
2022-09-06T05:30:23.696Z,14.56
2022-09-06T05:32:51.468Z,14.54
2022-09-06T05:35:18.737Z,14.69
2022-09-06T05:37:45.922Z,14.82
2022-09-06T05:40:13.103Z,14.95
2022-09-06T05:42:41.220Z,15.13
2022-09-06T05:45:08.867Z,15.32
2022-09-06T05:47:36.083Z,15.49
2022-09-06T05:50:03.672Z,15.59
2022-09-06T05:52:31.598Z,15.60
2022-09-06T05:55:02.581Z,15.70
2022-09-06T05:57:31.770Z,15.77
2022-09-06T05:59:59.469Z,15.84
2022-09-06T06:02:26.777Z,15.67
2022-09-06T06:04:54.766Z,15.33
2022-09-06T06:07:22.222Z,15.21
2022-09-06T06:09:49.679Z,15.18
2022-09-06T06:12:17.897Z,15.22
2022-09-06T06:14:45.224Z,15.43
2022-09-06T06:17:12.424Z,15.50
2022-09-06T06:19:40.352Z,15.65
2022-09-06T06:22:07.634Z,15.88
2022-09-06T06:24:35.341Z,15.88
2022-09-06T06:27:02.743Z,15.94
2022-09-06T06:29:30.291Z,15.84
2022-09-06T06:31:57.657Z,15.81
2022-09-06T06:34:24.899Z,15.81
2022-09-06T06:36:52.392Z,15.87
2022-09-06T06:39:19.636Z,15.68
2022-09-06T06:41:48.431Z,15.71
2022-09-06T06:44:34.616Z,15.69
2022-09-06T06:47:02.852Z,15.59
2022-09-06T06:49:30.341Z,15.53
2022-09-06T06:51:57.834Z,15.63
2022-09-06T06:54:25.138Z,15.68
2022-09-06T06:56:52.350Z,15.76
2022-09-06T06:59:20.969Z,15.84
2022-09-06T07:01:50.891Z,15.75
2022-09-06T07:04:18.238Z,15.81
2022-09-06T07:12:30.853Z,16.06
2022-09-06T07:14:58.151Z,16.24
2022-09-06T07:17:25.333Z,16.34
2022-09-06T07:22:40.950Z,16.34
2022-09-06T07:25:10.442Z,16.23
2022-09-06T07:27:52.850Z,16.17
2022-09-06T07:30:20.555Z,16.38
2022-09-06T07:32:48.376Z,16.64
2022-09-06T07:35:15.739Z,16.81
2022-09-06T07:37:43.039Z,16.90
2022-09-06T07:40:10.841Z,16.95
2022-09-06T07:42:38.313Z,16.87
2022-09-06T07:45:06.467Z,16.92
2022-09-06T07:53:14.990Z,17.08
2022-09-06T07:55:45.416Z,17.22
2022-09-06T07:58:12.665Z,17.28
2022-09-06T08:00:41.634Z,17.40
2022-09-06T08:03:09.857Z,17.34
2022-09-06T08:11:14.202Z,17.19
2022-09-06T08:13:42.501Z,17.14
2022-09-06T08:16:12.062Z,17.34
2022-09-06T08:18:39.804Z,17.33
2022-09-06T08:21:12.441Z,17.12
2022-09-06T08:23:44.989Z,17.00
2022-09-06T08:26:13.084Z,17.10
2022-09-06T08:28:40.573Z,17.22
2022-09-06T08:31:13.507Z,17.26
2022-09-06T08:33:41.690Z,17.27
2022-09-06T08:36:11.247Z,17.28
2022-09-06T08:38:40.098Z,17.35
2022-09-06T08:41:28.054Z,17.39
2022-09-06T08:47:01.361Z,17.66
2022-09-06T08:49:36.925Z,17.80
2022-09-06T08:52:30.191Z,17.99
2022-09-06T08:55:03.376Z,18.02
2022-09-06T08:58:08.066Z,17.92
2022-09-06T09:00:38.075Z,17.53
2022-09-06T09:03:16.526Z,17.61
2022-09-06T09:05:49.779Z,17.88
2022-09-06T09:08:37.164Z,18.05
2022-09-06T09:11:07.776Z,17.96
2022-09-06T09:14:04.502Z,17.73
2022-09-06T09:16:32.410Z,17.40
2022-09-06T09:19:03.743Z,17.45
2022-09-06T09:21:38.416Z,17.66
2022-09-06T09:24:08.630Z,17.66
2022-09-06T09:26:51.302Z,17.75
2022-09-06T09:29:20.863Z,17.86
2022-09-06T09:31:54.453Z,17.90
2022-09-06T09:34:39.965Z,18.08
2022-09-06T09:40:27.269Z,18.46
2022-09-06T09:43:09.287Z,18.59
2022-09-06T09:45:36.450Z,18.72
2022-09-06T09:48:25.390Z,18.90
2022-09-06T09:50:53.313Z,18.91
2022-09-06T09:53:22.506Z,18.95
2022-09-06T09:55:57.973Z,18.67
2022-09-06T09:58:35.986Z,18.43
2022-09-06T10:01:20.581Z,18.23
2022-09-06T10:09:33.856Z,17.87
2022-09-06T10:12:01.899Z,17.84
2022-09-06T10:14:33.269Z,17.78
2022-09-06T10:17:01.253Z,17.69
2022-09-06T10:19:43.013Z,17.83
2022-09-06T10:22:22.561Z,18.08
2022-09-06T10:25:11.966Z,18.35
2022-09-06T10:28:08.157Z,18.43
2022-09-06T10:31:00.798Z,18.44
2022-09-06T10:33:41.649Z,18.31
2022-09-06T10:36:09.219Z,18.19
2022-09-06T10:39:03.890Z,18.19
2022-09-06T10:41:42.745Z,18.27
2022-09-06T10:44:39.333Z,18.26
2022-09-06T10:47:13.648Z,18.25
2022-09-06T10:49:54.607Z,18.20
2022-09-06T10:52:43.856Z,18.19
2022-09-06T10:55:17.118Z,17.81
2022-09-06T11:00:47.550Z,17.57
2022-09-06T11:03:57.000Z,17.51
2022-09-06T11:06:33.309Z,17.49
2022-09-06T11:09:17.205Z,17.59
2022-09-06T11:12:09.536Z,17.53
2022-09-06T11:14:38.223Z,17.36
2022-09-06T11:17:19.105Z,17.27
2022-09-06T11:19:53.757Z,17.28
2022-09-06T11:22:45.067Z,17.30
2022-09-06T11:25:46.907Z,17.62
2022-09-06T11:28:19.548Z,17.91
2022-09-06T11:30:50.616Z,17.97
2022-09-06T11:33:30.647Z,18.08
2022-09-06T11:36:18.762Z,18.05
2022-09-06T11:39:00.723Z,17.99
2022-09-06T11:41:32.931Z,17.65
2022-09-06T11:44:00.887Z,17.71
2022-09-06T11:46:34.375Z,17.92
2022-09-06T11:49:32.081Z,17.90
2022-09-06T11:51:59.793Z,17.75
2022-09-06T11:54:51.466Z,17.60
2022-09-06T11:57:23.317Z,17.40
2022-09-06T12:00:02.016Z,17.78
2022-09-06T12:02:38.136Z,17.83
2022-09-06T12:05:07.699Z,17.61
2022-09-06T12:07:58.780Z,17.62
2022-09-06T12:10:32.341Z,17.68
2022-09-06T12:13:00.232Z,17.58
2022-09-06T12:15:30.369Z,17.63
2022-09-06T12:17:59.723Z,17.69
2022-09-06T12:20:48.457Z,17.87
2022-09-06T12:23:37.449Z,17.67
2022-09-06T12:26:09.412Z,17.41
2022-09-06T12:28:55.472Z,17.53
2022-09-06T12:31:38.768Z,17.75
2022-09-06T12:34:21.754Z,17.85
2022-09-06T12:36:56.478Z,17.80
2022-09-06T12:39:24.628Z,18.00
2022-09-06T12:42:01.243Z,17.96
2022-09-06T12:44:50.160Z,18.02
2022-09-06T12:47:20.581Z,17.67
2022-09-06T12:49:48.071Z,17.43
2022-09-06T12:52:19.635Z,17.46
2022-09-06T12:54:49.897Z,17.41
2022-09-06T12:57:23.274Z,17.27
2022-09-06T12:59:56.595Z,17.19
2022-09-06T13:02:44.004Z,17.21
2022-09-06T13:05:13.412Z,17.17
2022-09-06T13:07:45.913Z,17.34
2022-09-06T13:10:17.977Z,17.26
2022-09-06T13:12:49.238Z,17.35
2022-09-06T13:15:25.605Z,17.41
2022-09-06T13:17:54.745Z,17.44
2022-09-06T13:20:24.994Z,17.66
2022-09-06T13:22:52.660Z,17.74
2022-09-06T13:25:20.893Z,17.79
2022-09-06T13:27:51.360Z,17.84
2022-09-06T13:30:49.522Z,18.00
2022-09-06T13:33:26.808Z,18.10
2022-09-06T13:36:12.267Z,18.17
2022-09-06T13:38:42.773Z,18.13
2022-09-06T13:41:25.248Z,18.18
2022-09-06T13:44:08.062Z,18.22
2022-09-06T13:46:39.310Z,18.26
2022-09-06T13:49:06.616Z,18.24
2022-09-06T13:51:34.640Z,18.26
2022-09-06T13:54:14.286Z,18.30
2022-09-06T13:56:45.106Z,18.28
2022-09-06T13:59:12.969Z,18.34
2022-09-06T14:01:43.052Z,18.35
2022-09-06T14:04:15.749Z,18.34
2022-09-06T14:06:43.114Z,18.31
2022-09-06T14:09:10.543Z,18.22
2022-09-06T14:11:39.058Z,18.26
2022-09-06T14:14:06.366Z,18.30
2022-09-06T14:16:34.603Z,18.29
2022-09-06T14:19:04.016Z,18.22
2022-09-06T14:21:33.182Z,18.14
2022-09-06T14:24:04.174Z,18.10
2022-09-06T14:26:33.468Z,18.05
2022-09-06T14:29:00.825Z,17.91
2022-09-06T14:31:29.635Z,17.67
2022-09-06T14:33:57.520Z,17.65
2022-09-06T14:36:27.156Z,17.62
2022-09-06T14:38:55.094Z,17.47
2022-09-06T14:41:22.384Z,17.40
2022-09-06T14:43:52.348Z,17.42
2022-09-06T14:46:22.231Z,17.47
2022-09-06T14:49:04.433Z,17.44
2022-09-06T14:51:32.178Z,17.39
2022-09-06T14:54:04.558Z,17.37
2022-09-06T14:56:32.044Z,17.36
2022-09-06T14:59:00.188Z,17.32
2022-09-06T15:01:33.052Z,17.31
2022-09-06T15:04:05.636Z,17.22
2022-09-06T15:06:37.264Z,17.23
2022-09-06T15:09:05.784Z,17.24
2022-09-06T15:11:34.796Z,17.37
2022-09-06T15:14:04.162Z,17.33
2022-09-06T15:16:33.617Z,17.46
2022-09-06T15:19:03.292Z,17.50
2022-09-06T15:21:31.457Z,17.48
2022-09-06T15:24:00.471Z,17.50
2022-09-06T15:26:27.861Z,17.55
2022-09-06T15:28:55.213Z,17.46
2022-09-06T15:31:23.181Z,17.35
2022-09-06T15:33:52.043Z,17.47
2022-09-06T15:36:20.157Z,17.50
2022-09-06T15:38:49.868Z,17.48
2022-09-06T15:41:25.516Z,17.53
2022-09-06T15:44:00.003Z,17.75
2022-09-06T15:46:41.530Z,17.69
2022-09-06T15:49:11.411Z,17.65
2022-09-06T15:51:40.499Z,17.57
2022-09-06T15:54:08.315Z,17.62
2022-09-06T15:56:36.691Z,17.59
2022-09-06T15:59:05.529Z,17.62
2022-09-06T16:01:36.699Z,17.57
2022-09-06T16:04:06.980Z,17.51
2022-09-06T16:06:42.745Z,17.57
2022-09-06T16:09:14.805Z,17.59
2022-09-06T16:11:42.419Z,17.51
2022-09-06T16:14:12.364Z,17.45
2022-09-06T16:16:40.655Z,17.53
2022-09-06T16:19:08.506Z,17.52
2022-09-06T16:21:38.416Z,17.48
2022-09-06T16:24:08.547Z,17.57
2022-09-06T16:26:44.101Z,17.51
2022-09-06T16:29:13.154Z,17.35
2022-09-06T16:31:41.541Z,17.27
2022-09-06T16:34:10.051Z,17.10
2022-09-06T16:36:37.597Z,16.95
2022-09-06T16:39:05.841Z,16.96
2022-09-06T16:41:45.090Z,16.95
2022-09-06T16:44:17.059Z,16.83
2022-09-06T16:46:47.140Z,16.74
2022-09-06T16:49:17.205Z,16.73
2022-09-06T16:51:45.903Z,16.74
2022-09-06T16:54:14.177Z,16.64
2022-09-06T16:56:41.900Z,16.63
2022-09-06T16:59:11.032Z,16.63
2022-09-06T17:01:41.772Z,16.58
2022-09-06T17:04:10.182Z,16.55
2022-09-06T17:06:44.498Z,16.52
2022-09-06T17:09:14.310Z,16.54
2022-09-06T17:11:41.699Z,16.37
2022-09-06T17:14:09.520Z,16.50
2022-09-06T17:16:55.644Z,16.46
2022-09-06T17:19:23.186Z,16.33
2022-09-06T17:21:50.693Z,16.30
2022-09-06T17:24:17.950Z,16.21
2022-09-06T17:26:45.257Z,16.20
2022-09-06T17:29:12.900Z,16.15
2022-09-06T17:31:40.817Z,16.20
2022-09-06T17:34:08.185Z,16.15
2022-09-06T17:36:36.611Z,16.08
2022-09-06T17:39:09.089Z,16.28
2022-09-06T17:41:50.196Z,16.21
2022-09-06T17:44:19.523Z,16.16
2022-09-06T17:47:08.988Z,16.20
2022-09-06T17:49:35.579Z,16.20
2022-09-06T17:52:03.098Z,16.12
2022-09-06T17:54:31.931Z,16.13
2022-09-06T17:56:59.609Z,16.14
2022-09-06T17:59:28.620Z,16.10
2022-09-06T18:01:59.103Z,15.96
2022-09-06T18:04:26.409Z,16.02
2022-09-06T18:06:54.077Z,15.92
2022-09-06T18:09:21.688Z,15.92
2022-09-06T18:11:49.298Z,16.04
2022-09-06T18:14:21.075Z,16.05
2022-09-06T18:16:51.124Z,16.05
2022-09-06T18:19:19.221Z,16.11
2022-09-06T18:21:47.534Z,16.11
2022-09-06T18:24:15.100Z,16.11
2022-09-06T18:26:43.271Z,16.06
2022-09-06T18:29:13.673Z,16.07
2022-09-06T18:31:41.678Z,16.07
2022-09-06T18:34:10.748Z,16.00
2022-09-06T18:36:39.305Z,16.05
2022-09-06T18:39:07.019Z,15.96
2022-09-06T18:41:53.910Z,15.97
2022-09-06T18:44:21.812Z,15.94
2022-09-06T18:46:49.471Z,15.90
2022-09-06T18:49:17.607Z,15.98
2022-09-06T18:51:45.732Z,15.89
2022-09-06T18:54:13.841Z,15.96
2022-09-06T18:56:42.829Z,15.95
2022-09-06T18:59:13.921Z,15.92
2022-09-06T19:01:42.954Z,15.87
2022-09-06T19:04:11.658Z,15.83
2022-09-06T19:06:41.185Z,15.84
2022-09-06T19:09:11.950Z,15.81
2022-09-06T19:11:41.972Z,15.78
2022-09-06T19:14:09.828Z,15.72
2022-09-06T19:16:37.100Z,15.70
2022-09-06T19:19:06.782Z,15.72
2022-09-06T19:21:39.347Z,15.68
2022-09-06T19:24:10.474Z,15.59
2022-09-06T19:26:40.784Z,15.61
2022-09-06T19:29:13.286Z,15.52
2022-09-06T19:31:41.586Z,15.48
2022-09-06T19:34:08.944Z,15.56
2022-09-06T19:36:36.552Z,15.48
2022-09-06T19:39:06.964Z,15.44
2022-09-06T19:41:38.030Z,15.46
2022-09-06T19:44:07.896Z,15.40
2022-09-06T19:46:35.548Z,15.26
2022-09-06T19:49:03.841Z,15.24
2022-09-06T19:51:31.773Z,15.15
2022-09-06T19:54:00.123Z,15.13
2022-09-06T19:56:33.831Z,15.19
2022-09-06T19:59:04.428Z,15.14
2022-09-06T20:01:33.664Z,15.14
2022-09-06T20:04:03.557Z,15.19
2022-09-06T20:06:31.658Z,15.18
2022-09-06T20:09:00.158Z,15.17
2022-09-06T20:11:30.120Z,15.12
2022-09-06T20:13:57.855Z,15.11
2022-09-06T20:16:25.915Z,15.13
2022-09-06T20:18:59.196Z,15.11
2022-09-06T20:21:30.007Z,15.16
2022-09-06T20:23:59.442Z,15.04
2022-09-06T20:26:29.247Z,14.95
2022-09-06T20:28:58.709Z,14.92
2022-09-06T20:31:29.232Z,14.84
2022-09-06T20:33:58.494Z,14.77
2022-09-06T20:36:26.020Z,14.64
2022-09-06T20:38:53.547Z,14.63
2022-09-06T20:41:23.912Z,14.54
2022-09-06T20:43:56.854Z,14.56
2022-09-06T20:46:26.501Z,14.54
2022-09-06T20:48:56.939Z,14.49
2022-09-06T20:51:25.507Z,14.50
2022-09-06T20:53:55.545Z,14.39
2022-09-06T20:56:25.750Z,14.39
2022-09-06T20:59:00.944Z,14.37
2022-09-06T21:01:31.468Z,14.38
2022-09-06T21:04:00.679Z,14.34
2022-09-06T21:06:31.027Z,14.36
2022-09-06T21:08:58.393Z,14.36
2022-09-06T21:11:25.839Z,14.34
2022-09-06T21:13:56.219Z,14.45
2022-09-06T21:16:26.110Z,14.51
2022-09-06T21:18:55.527Z,14.49
2022-09-06T21:21:23.928Z,14.40
2022-09-06T21:23:51.294Z,14.32
2022-09-06T21:26:19.270Z,14.24
2022-09-06T21:28:47.900Z,14.15
2022-09-06T21:31:27.013Z,14.12
2022-09-06T21:33:57.009Z,13.98
2022-09-06T21:36:32.042Z,14.01
2022-09-06T21:39:00.480Z,14.17
2022-09-06T21:41:28.951Z,14.00
2022-09-06T21:43:58.640Z,13.97
2022-09-06T21:46:34.997Z,13.92
2022-09-06T21:49:04.591Z,13.86
2022-09-06T21:51:32.773Z,13.76
2022-09-06T21:54:05.683Z,13.70
2022-09-06T21:56:36.050Z,13.69
2022-09-06T21:59:04.986Z,13.67
2022-09-06T22:01:34.213Z,13.73
2022-09-06T22:04:02.516Z,13.73
2022-09-06T22:06:33.525Z,13.71
2022-09-06T22:09:03.529Z,13.75
2022-09-06T22:11:33.124Z,13.73
2022-09-06T22:14:02.915Z,13.68
2022-09-06T22:16:33.133Z,13.61
2022-09-06T22:19:00.973Z,13.46
2022-09-06T22:21:28.249Z,13.37
2022-09-06T22:23:58.221Z,13.34
2022-09-06T22:26:27.356Z,13.30
2022-09-06T22:28:58.368Z,13.24
2022-09-06T22:31:27.576Z,13.23
2022-09-06T22:33:56.281Z,13.24
2022-09-06T22:36:24.326Z,13.26
2022-09-06T22:38:56.526Z,13.25
2022-09-06T22:41:25.627Z,13.29
2022-09-06T22:43:53.105Z,13.16
2022-09-06T22:46:21.032Z,13.22
2022-09-06T22:48:49.483Z,13.05
2022-09-06T22:51:17.267Z,13.12
2022-09-06T22:53:45.308Z,13.00
2022-09-06T22:56:12.942Z,12.84
2022-09-06T22:58:40.304Z,12.81
2022-09-06T23:01:13.342Z,12.88
2022-09-06T23:03:42.028Z,12.82
2022-09-06T23:06:10.141Z,12.84
2022-09-06T23:08:39.127Z,12.85
2022-09-06T23:11:18.043Z,12.78
2022-09-06T23:13:47.469Z,12.71
2022-09-06T23:16:17.929Z,12.72
2022-09-06T23:18:46.335Z,12.73
2022-09-06T23:21:16.545Z,12.62
2022-09-06T23:23:44.459Z,12.73
2022-09-06T23:26:15.771Z,12.69
2022-09-06T23:28:43.805Z,12.71
2022-09-06T23:31:13.360Z,12.76
2022-09-06T23:33:41.938Z,12.80
2022-09-06T23:36:12.261Z,12.76
2022-09-06T23:38:41.584Z,12.79
2022-09-06T23:41:10.442Z,12.72
2022-09-06T23:43:38.922Z,12.64
2022-09-06T23:46:07.310Z,12.63
2022-09-06T23:48:35.388Z,12.64
2022-09-06T23:51:03.038Z,12.57
2022-09-06T23:53:30.395Z,12.56
2022-09-06T23:55:58.382Z,12.49
2022-09-06T23:58:25.967Z,12.55
